Time;durP1;ratioP1;P1;durP2;ratioP2;P2;SDS_P1;SDS_P2;PMS_P1;PMS_P2;Temp;Humidity;BMP_temperature;BMP_pressure;BME280_temperature;BME280_humidity;BME280_pressure;Samples;Min_cycle;Max_cycle;Signal;HPM_P1;HPM_P2
2022/07/07 00:01:29;;;;;;;10.80;5.28;;;563.30;2432.00;;;;;;5098520;28;20399;-80
2022/07/07 00:03:55;;;;;;;11.88;5.07;;;563.40;2432.00;;;;;;5101955;28;20386;-80
2022/07/07 00:06:21;;;;;;;8.48;4.10;;;563.50;2432.00;;;;;;5078334;28;20016;-80
2022/07/07 00:08:47;;;;;;;6.57;3.85;;;563.50;2432.00;;;;;;5092647;28;20043;-79
2022/07/07 00:11:15;;;;;;;10.52;4.75;;;563.60;2432.00;;;;;;5078080;28;20070;-80
2022/07/07 00:13:40;;;;;;;13.45;4.40;;;563.60;2432.00;;;;;;5085043;28;20036;-80
2022/07/07 00:16:06;;;;;;;7.68;4.28;;;563.70;2432.00;;;;;;5072080;28;20017;-80
2022/07/07 00:18:32;;;;;;;7.03;3.88;;;563.80;2432.00;;;;;;5055476;28;20028;-80
2022/07/07 00:20:57;;;;;;;7.82;4.28;;;563.70;2432.00;;;;;;5084793;28;20016;-80
2022/07/07 00:23:23;;;;;;;8.15;4.82;;;563.50;2432.00;;;;;;5077764;28;20020;-79
2022/07/07 00:25:50;;;;;;;8.85;4.43;;;563.50;2432.00;;;;;;5092599;28;20032;-80
2022/07/07 00:28:15;;;;;;;8.50;4.25;;;563.50;2432.00;;;;;;5093107;28;20036;-80
2022/07/07 00:30:42;;;;;;;10.73;5.07;;;563.30;2432.00;;;;;;5093582;28;20477;-79
2022/07/07 00:33:08;;;;;;;13.43;4.60;;;563.20;2432.00;;;;;;5092017;28;20024;-77
2022/07/07 00:35:34;;;;;;;12.18;5.40;;;563.40;2432.00;;;;;;5072365;28;20051;-80
2022/07/07 00:37:59;;;;;;;9.23;5.20;;;563.60;2432.00;;;;;;5084512;28;20035;-81
2022/07/07 00:40:25;;;;;;;9.13;5.32;;;563.60;2432.00;;;;;;5073419;28;20044;-79
2022/07/07 00:42:51;;;;;;;10.07;5.30;;;563.60;2432.00;;;;;;5054840;28;20466;-79
2022/07/07 00:45:16;;;;;;;8.07;5.10;;;563.50;2432.00;;;;;;5104490;28;20461;-82
2022/07/07 00:47:43;;;;;;;8.52;5.53;;;563.50;2432.00;;;;;;5084028;28;20036;-82
2022/07/07 00:50:10;;;;;;;9.73;6.70;;;563.50;2432.00;;;;;;5099111;28;20109;-81
2022/07/07 00:52:36;;;;;;;13.45;7.53;;;563.60;2432.00;;;;;;5093128;28;20027;-82
2022/07/07 00:55:05;;;;;;;15.90;7.65;;;563.70;2432.00;;;;;;5079031;28;20486;-78
2022/07/07 00:57:31;;;;;;;16.42;7.80;;;563.80;2432.00;;;;;;5105959;28;20031;-80
2022/07/07 00:59:59;;;;;;;10.77;7.05;;;563.90;2432.00;;;;;;5084929;28;20064;-81
2022/07/07 01:02:29;;;;;;;14.10;7.03;;;563.80;2432.00;;;;;;5085728;28;20477;-80
2022/07/07 01:04:56;;;;;;;13.10;6.38;;;563.80;2432.00;;;;;;5077167;28;20032;-79
2022/07/07 01:07:22;;;;;;;10.25;5.53;;;563.80;2432.00;;;;;;5093104;28;20040;-80
2022/07/07 01:09:48;;;;;;;14.00;5.63;;;563.80;2432.00;;;;;;5092337;28;20070;-80
2022/07/07 01:12:14;;;;;;;9.25;5.13;;;563.90;2432.00;;;;;;5092682;28;20031;-80
2022/07/07 01:14:40;;;;;;;10.20;4.85;;;563.90;2432.00;;;;;;5077516;28;20029;-80
2022/07/07 01:17:06;;;;;;;8.00;5.10;;;563.80;2432.00;;;;;;5092594;28;20402;-82
2022/07/07 01:19:32;;;;;;;13.50;5.00;;;563.80;2432.00;;;;;;5092948;28;20027;-80
2022/07/07 01:22:11;;;;;;;11.05;5.22;;;563.80;2432.00;;;;;;5092561;28;20020;-77
2022/07/07 01:24:37;;;;;;;9.75;5.25;;;563.80;2432.00;;;;;;5092932;28;20024;-81
2022/07/07 01:27:15;;;;;;;6.97;4.15;;;563.60;2432.00;;;;;;5076797;28;20039;-81
2022/07/07 01:29:48;;;;;;;7.32;4.50;;;563.60;2432.00;;;;;;5091718;28;20020;-81
2022/07/07 01:32:15;;;;;;;7.85;3.85;;;563.70;2432.00;;;;;;5086428;28;20024;-80
2022/07/07 01:34:42;;;;;;;11.70;4.38;;;563.80;2432.00;;;;;;5084701;28;20020;-79
2022/07/07 01:37:08;;;;;;;6.60;3.55;;;563.70;2432.00;;;;;;5076551;28;20047;-82
2022/07/07 01:39:35;;;;;;;9.40;4.13;;;563.50;2432.00;;;;;;5091405;28;20024;-78
2022/07/07 01:42:02;;;;;;;10.80;4.53;;;563.30;2432.00;;;;;;5092483;28;20510;-81
2022/07/07 01:44:31;;;;;;;6.28;3.70;;;563.20;2432.00;;;;;;5081851;28;20024;-81
2022/07/07 01:46:57;;;;;;;5.43;3.00;;;563.40;2432.00;;;;;;5088871;28;20016;-81
2022/07/07 01:49:24;;;;;;;12.05;3.65;;;563.30;2432.00;;;;;;5104618;28;20032;-81
2022/07/07 01:51:50;;;;;;;5.50;3.60;;;563.20;2432.00;;;;;;5092558;28;20111;-80
2022/07/07 01:54:15;;;;;;;5.55;3.60;;;538.50;2406.40;;;;;;5089434;28;20068;-81
2022/07/07 01:56:41;;;;;;;6.82;3.78;;;538.30;2406.40;;;;;;5102721;28;20402;-82
2022/07/07 01:59:08;;;;;;;9.40;3.75;;;538.20;2406.40;;;;;;5096414;28;20035;-81
2022/07/07 02:01:34;;;;;;;12.13;3.55;;;538.00;2406.40;;;;;;5096059;28;20036;-82
2022/07/07 02:04:00;;;;;;;9.30;4.20;;;538.20;2406.40;;;;;;5083164;28;20028;-82
2022/07/07 02:06:26;;;;;;;7.60;3.28;;;538.40;2406.40;;;;;;5074526;28;20066;-79
2022/07/07 02:08:52;;;;;;;9.73;4.38;;;538.40;2406.40;;;;;;5085348;28;20087;-79
2022/07/07 02:11:18;;;;;;;12.55;4.55;;;538.50;2406.40;;;;;;5080399;28;20036;-80
2022/07/07 02:13:47;;;;;;;12.15;4.88;;;538.50;2406.40;;;;;;5086632;28;20025;-79
2022/07/07 02:16:14;;;;;;;13.23;5.03;;;563.20;2432.00;;;;;;5088864;28;20115;-77
2022/07/07 02:18:41;;;;;;;8.27;4.65;;;563.30;2432.00;;;;;;5095585;28;20082;-80
2022/07/07 02:21:08;;;;;;;11.25;5.20;;;563.20;2432.00;;;;;;5081763;28;20478;-79
2022/07/07 02:23:35;;;;;;;9.73;5.07;;;563.20;2432.00;;;;;;5106905;28;20025;-79
2022/07/07 02:26:01;;;;;;;13.13;5.20;;;538.50;2406.40;;;;;;5085220;28;20032;-79
2022/07/07 02:28:27;;;;;;;10.35;5.28;;;538.40;2406.40;;;;;;5095539;28;20141;-78
2022/07/07 02:30:57;;;;;;;10.70;5.55;;;538.30;2406.40;;;;;;5085527;28;20012;-78
2022/07/07 02:33:24;;;;;;;10.68;5.18;;;538.00;2406.40;;;;;;5089947;28;20024;-79
2022/07/07 02:35:50;;;;;;;13.02;5.45;;;538.00;2406.40;;;;;;5095859;28;20019;-80
2022/07/07 02:38:17;;;;;;;7.90;4.85;;;537.90;2406.40;;;;;;5095798;28;20024;-80
2022/07/07 02:40:42;;;;;;;13.48;5.38;;;537.80;2406.40;;;;;;5100130;28;20020;-80
2022/07/07 02:43:15;;;;;;;14.98;6.18;;;538.00;2406.40;;;;;;5090435;28;20167;-80
2022/07/07 02:45:42;;;;;;;13.32;4.93;;;538.10;2406.40;;;;;;5091557;28;20096;-80
2022/07/07 02:48:09;;;;;;;12.07;5.45;;;538.20;2406.40;;;;;;5095376;28;20032;-79
2022/07/07 02:50:35;;;;;;;9.57;5.18;;;538.20;2406.40;;;;;;5093950;28;20016;-79
2022/07/07 02:53:02;;;;;;;9.98;5.22;;;538.30;2406.40;;;;;;5093994;28;20020;-79
2022/07/07 02:55:28;;;;;;;13.18;5.88;;;538.10;2406.40;;;;;;5095068;28;20115;-78
2022/07/07 02:57:54;;;;;;;12.02;5.60;;;538.00;2406.40;;;;;;5109525;28;20028;-79
2022/07/07 03:00:20;;;;;;;11.00;6.05;;;537.90;2406.40;;;;;;5094391;28;20454;-80
2022/07/07 03:02:46;;;;;;;13.27;6.00;;;537.80;2406.40;;;;;;5092168;28;20038;-79
2022/07/07 03:05:11;;;;;;;13.02;5.95;;;537.70;2406.40;;;;;;5081401;28;20103;-79
2022/07/07 03:07:38;;;;;;;13.65;5.80;;;537.60;2406.40;;;;;;5080093;28;20475;-79
2022/07/07 03:10:05;;;;;;;10.27;5.97;;;512.90;2380.80;;;;;;5080352;28;20035;-79
2022/07/07 03:12:31;;;;;;;17.55;5.90;;;512.90;2380.80;;;;;;5093331;28;20485;-80
2022/07/07 03:14:57;;;;;;;10.10;5.25;;;512.80;2380.80;;;;;;5079716;28;20031;-80
2022/07/07 03:17:22;;;;;;;9.48;5.03;;;512.90;2380.80;;;;;;5093640;28;20028;-79
2022/07/07 03:19:48;;;;;;;12.07;5.18;;;537.60;2406.40;;;;;;5079429;28;20505;-80
2022/07/07 03:22:14;;;;;;;10.38;4.72;;;537.60;2406.40;;;;;;5094816;28;20496;-79
2022/07/07 03:24:40;;;;;;;14.25;4.57;;;537.70;2406.40;;;;;;5079469;28;20035;-80
2022/07/07 03:27:06;;;;;;;11.23;4.55;;;537.80;2406.40;;;;;;5079170;28;20504;-80
2022/07/07 03:29:32;;;;;;;11.57;4.90;;;537.90;2406.40;;;;;;5080938;28;20475;-79
2022/07/07 03:31:58;;;;;;;9.25;4.63;;;537.80;2406.40;;;;;;5056364;28;20075;-79
2022/07/07 03:34:23;;;;;;;7.20;3.65;;;537.80;2406.40;;;;;;5084141;28;20055;-80
2022/07/07 03:36:49;;;;;;;8.20;3.90;;;538.00;2406.40;;;;;;5079971;28;20020;-80
2022/07/07 03:39:15;;;;;;;10.07;4.20;;;537.70;2406.40;;;;;;5094249;28;20020;-80
2022/07/07 03:41:41;;;;;;;11.23;4.85;;;537.80;2406.40;;;;;;5093366;28;20020;-80
2022/07/07 03:44:06;;;;;;;12.48;4.28;;;537.90;2406.40;;;;;;5078856;28;20035;-80
2022/07/07 03:46:32;;;;;;;12.55;4.07;;;538.00;2406.40;;;;;;5092812;28;20379;-81
2022/07/07 03:48:58;;;;;;;11.63;4.30;;;537.90;2406.40;;;;;;5094132;28;20080;-83
2022/07/07 03:51:23;;;;;;;10.15;4.85;;;538.00;2406.40;;;;;;5082664;28;20043;-78
2022/07/07 03:53:49;;;;;;;9.40;4.53;;;538.00;2406.40;;;;;;5102121;28;20418;-78
2022/07/07 03:56:15;;;;;;;7.70;4.47;;;538.00;2406.40;;;;;;5080938;28;20055;-82
2022/07/07 03:58:41;;;;;;;12.02;4.78;;;538.00;2406.40;;;;;;5094431;28;20024;-82
2022/07/07 04:01:07;;;;;;;12.18;5.28;;;537.90;2406.40;;;;;;5078476;28;20028;-81
2022/07/07 04:03:33;;;;;;;12.27;5.20;;;537.80;2406.40;;;;;;5084972;28;20082;-81
2022/07/07 04:05:59;;;;;;;9.85;5.03;;;538.00;2406.40;;;;;;5101183;28;20019;-79
2022/07/07 04:08:26;;;;;;;8.82;4.95;;;538.00;2406.40;;;;;;5079943;28;20032;-78
2022/07/07 04:10:52;;;;;;;13.88;4.80;;;537.90;2406.40;;;;;;5091636;28;20034;-78
2022/07/07 04:13:17;;;;;;;14.68;4.80;;;538.00;2406.40;;;;;;5088121;28;20107;-80
2022/07/07 04:15:43;;;;;;;12.48;4.70;;;537.90;2406.40;;;;;;5082031;28;20074;-79
2022/07/07 04:18:09;;;;;;;9.32;4.85;;;538.00;2406.40;;;;;;5093746;28;20027;-75
2022/07/07 04:20:35;;;;;;;9.00;5.30;;;537.90;2406.40;;;;;;5093014;28;20482;-78
2022/07/07 04:23:00;;;;;;;7.45;5.35;;;538.00;2406.40;;;;;;5076929;28;20111;-77
2022/07/07 04:25:26;;;;;;;13.20;5.05;;;538.00;2406.40;;;;;;5091576;28;20024;-78
2022/07/07 04:27:52;;;;;;;13.07;4.90;;;538.10;2406.40;;;;;;5091158;28;20479;-76
2022/07/07 04:30:18;;;;;;;9.63;4.22;;;538.20;2406.40;;;;;;5072606;28;20486;-77
2022/07/07 04:32:43;;;;;;;9.10;6.03;;;538.00;2406.40;;;;;;5071110;28;20424;-75
2022/07/07 04:35:09;;;;;;;12.43;5.35;;;538.20;2406.40;;;;;;5092628;28;20024;-77
2022/07/07 04:37:36;;;;;;;7.38;4.43;;;538.00;2406.40;;;;;;5091149;28;20031;-76
2022/07/07 04:40:03;;;;;;;8.05;4.70;;;538.00;2406.40;;;;;;5091368;28;20064;-78
2022/07/07 04:42:29;;;;;;;8.55;4.53;;;537.90;2406.40;;;;;;5106449;28;20016;-76
2022/07/07 04:44:55;;;;;;;8.70;5.00;;;538.30;2406.40;;;;;;5078061;28;20413;-76
2022/07/07 04:47:21;;;;;;;9.05;4.40;;;537.70;2406.40;;;;;;5091120;28;20015;-78
2022/07/07 04:49:47;;;;;;;15.38;3.97;;;537.70;2406.40;;;;;;5090949;28;20031;-76
2022/07/07 04:52:13;;;;;;;5.53;4.25;;;538.00;2406.40;;;;;;5093725;28;20024;-78
2022/07/07 04:54:39;;;;;;;6.25;4.38;;;538.00;2406.40;;;;;;5090199;28;20109;-78
2022/07/07 04:57:05;;;;;;;13.02;4.75;;;538.00;2406.40;;;;;;5101258;28;20040;-76
2022/07/07 04:59:31;;;;;;;8.27;4.53;;;538.20;2406.40;;;;;;5095354;28;20060;-76
2022/07/07 05:01:56;;;;;;;7.35;3.75;;;538.20;2406.40;;;;;;5092411;28;20417;-76
2022/07/07 05:04:22;;;;;;;8.10;4.47;;;538.00;2406.40;;;;;;5092001;28;20103;-75
2022/07/07 05:06:48;;;;;;;5.13;3.85;;;537.90;2406.40;;;;;;5090724;28;20016;-75
2022/07/07 05:09:14;;;;;;;8.30;3.85;;;538.20;2406.40;;;;;;5079216;28;20115;-76
2022/07/07 05:11:40;;;;;;;7.50;4.20;;;538.30;2406.40;;;;;;5087977;28;20052;-74
2022/07/07 05:14:05;;;;;;;9.40;3.80;;;538.30;2406.40;;;;;;5079757;28;20029;-76
2022/07/07 05:16:31;;;;;;;6.20;4.28;;;538.50;2406.40;;;;;;5104443;28;20047;-76
2022/07/07 05:18:57;;;;;;;5.90;3.65;;;538.50;2406.40;;;;;;5081285;28;20142;-75
2022/07/07 05:21:23;;;;;;;5.93;3.38;;;563.30;2432.00;;;;;;5086328;28;20227;-75
2022/07/07 05:23:49;;;;;;;6.22;3.55;;;563.40;2432.00;;;;;;5083899;28;20021;-76
2022/07/07 05:26:14;;;;;;;9.43;3.80;;;563.40;2432.00;;;;;;5096824;28;20035;-76
2022/07/07 05:28:43;;;;;;;6.68;3.30;;;563.40;2432.00;;;;;;5078593;28;20028;-76
2022/07/07 05:31:14;;;;;;;7.32;3.85;;;563.40;2432.00;;;;;;5096125;28;20222;-76
2022/07/07 05:33:40;;;;;;;4.78;3.33;;;563.60;2432.00;;;;;;5094569;28;20024;-76
2022/07/07 05:36:06;;;;;;;8.23;3.63;;;563.60;2406.40;;;;;;5084640;28;20025;-77
2022/07/07 05:38:33;;;;;;;8.20;3.50;;;564.10;2432.00;;;;;;5106298;28;20032;-76
2022/07/07 05:40:59;;;;;;;5.57;3.40;;;563.70;2432.00;;;;;;5086464;28;20378;-74
2022/07/07 05:43:25;;;;;;;7.90;3.38;;;563.90;2380.80;;;;;;5089612;28;20036;-75
2022/07/07 05:45:51;;;;;;;7.40;3.85;;;564.10;2355.20;;;;;;5095931;28;20016;-76
2022/07/07 05:48:17;;;;;;;6.68;3.78;;;564.00;2355.20;;;;;;5095581;28;20032;-75
2022/07/07 05:50:43;;;;;;;10.20;3.22;;;564.00;2304.00;;;;;;5095666;28;20020;-76
2022/07/07 05:53:09;;;;;;;5.22;3.50;;;588.80;2278.40;;;;;;5094311;28;20054;-76
2022/07/07 05:55:35;;;;;;;8.13;3.28;;;564.10;2304.00;;;;;;5095265;28;20043;-76
2022/07/07 05:58:00;;;;;;;7.07;3.60;;;589.00;2227.20;;;;;;5094150;28;20127;-75
2022/07/07 06:00:27;;;;;;;14.52;4.93;;;589.00;2227.20;;;;;;5083598;28;20024;-76
2022/07/07 06:02:53;;;;;;;8.25;3.90;;;588.90;2227.20;;;;;;5092011;28;20067;-77
2022/07/07 06:05:19;;;;;;;10.20;3.67;;;588.90;2227.20;;;;;;5095386;28;20367;-75
2022/07/07 06:07:45;;;;;;;9.50;3.92;;;589.00;2227.20;;;;;;5095440;28;20458;-76
2022/07/07 06:10:11;;;;;;;6.25;3.45;;;589.10;2227.20;;;;;;5095309;28;20028;-76
2022/07/07 06:12:38;;;;;;;8.43;3.33;;;589.10;2176.00;;;;;;5095116;28;20020;-76
2022/07/07 06:15:04;;;;;;;7.80;3.33;;;589.30;2176.00;;;;;;5095122;28;20472;-75
2022/07/07 06:17:30;;;;;;;6.45;3.42;;;589.40;2124.80;;;;;;5094223;28;20080;-75
2022/07/07 06:19:57;;;;;;;7.38;3.22;;;589.50;2099.20;;;;;;5079222;28;20534;-75
2022/07/07 06:22:23;;;;;;;8.50;3.25;;;589.70;2073.60;;;;;;5083508;28;20048;-77
2022/07/07 06:24:49;;;;;;;6.13;3.63;;;614.40;2022.40;;;;;;5090188;28;20462;-77
2022/07/07 06:27:14;;;;;;;6.68;3.33;;;614.40;1996.80;;;;;;5094839;28;20031;-75
2022/07/07 06:29:40;;;;;;;6.93;3.65;;;614.50;1971.20;;;;;;5079787;28;20033;-76
2022/07/07 06:32:06;;;;;;;7.90;3.25;;;614.60;1945.60;;;;;;5093789;28;20016;-75
2022/07/07 06:34:32;;;;;;;13.25;3.67;;;614.70;1920.00;;;;;;5095455;28;20030;-75
2022/07/07 06:36:58;;;;;;;5.93;3.10;;;614.70;1920.00;;;;;;5094668;28;20099;-79
2022/07/07 06:39:24;;;;;;;9.10;3.88;;;614.70;1894.40;;;;;;5095010;28;20028;-75
2022/07/07 06:41:50;;;;;;;8.18;3.20;;;614.80;1868.80;;;;;;5078903;28;20038;-75
2022/07/07 06:44:16;;;;;;;12.57;3.47;;;614.80;1894.40;;;;;;5094806;28;20403;-80
2022/07/07 06:46:42;;;;;;;8.40;3.17;;;614.90;1894.40;;;;;;5094585;28;20034;-74
2022/07/07 06:49:08;;;;;;;6.50;3.15;;;615.00;1920.00;;;;;;5094523;28;20036;-76
2022/07/07 06:51:34;;;;;;;8.13;3.92;;;615.10;1894.40;;;;;;5094744;28;20024;-76
2022/07/07 06:54:00;;;;;;;6.60;3.47;;;615.20;1843.20;;;;;;5077925;28;20030;-75
2022/07/07 06:56:26;;;;;;;8.77;3.58;;;615.30;1792.00;;;;;;5099720;28;20066;-75
2022/07/07 06:58:52;;;;;;;3.90;2.80;;;640.00;1766.40;;;;;;5100960;28;20040;-74
2022/07/07 07:01:18;;;;;;;5.25;3.00;;;640.20;1766.40;;;;;;5094452;28;20020;-74
2022/07/07 07:03:44;;;;;;;6.63;3.00;;;640.20;1740.80;;;;;;5094335;28;20060;-74
2022/07/07 07:06:10;;;;;;;5.28;3.05;;;640.20;1715.20;;;;;;5094534;28;20062;-77
2022/07/07 07:08:36;;;;;;;6.75;2.92;;;640.40;1766.40;;;;;;5085202;28;20028;-78
2022/07/07 07:11:03;;;;;;;5.07;2.75;;;640.50;1740.80;;;;;;5087961;28;20413;-77
2022/07/07 07:13:29;;;;;;;6.85;3.28;;;640.70;1740.80;;;;;;5094207;28;20008;-76
2022/07/07 07:15:55;;;;;;;4.05;2.65;;;640.90;1689.60;;;;;;5094006;28;20028;-74
2022/07/07 07:18:21;;;;;;;6.88;3.17;;;640.90;1689.60;;;;;;5094210;28;20012;-77
2022/07/07 07:20:47;;;;;;;10.18;3.03;;;665.60;1689.60;;;;;;5093871;28;20039;-77
2022/07/07 07:23:13;;;;;;;5.03;3.10;;;665.60;1689.60;;;;;;5093062;28;20024;-77
2022/07/07 07:25:38;;;;;;;9.60;3.05;;;665.80;1689.60;;;;;;5084453;28;20051;-77
2022/07/07 07:28:04;;;;;;;7.28;3.10;;;665.80;1689.60;;;;;;5100243;28;20037;-75
2022/07/07 07:30:31;;;;;;;9.65;3.22;;;665.90;1689.60;;;;;;5079509;28;20374;-76
2022/07/07 07:32:57;;;;;;;14.55;3.08;;;666.00;1689.60;;;;;;5092630;28;20470;-76
2022/07/07 07:35:23;;;;;;;9.70;3.45;;;666.20;1715.20;;;;;;5082058;28;20026;-76
2022/07/07 07:37:48;;;;;;;10.73;4.05;;;666.20;1664.00;;;;;;5102633;28;20024;-77
2022/07/07 07:40:14;;;;;;;7.10;4.00;;;666.30;1638.40;;;;;;5092828;28;20058;-76
2022/07/07 07:42:40;;;;;;;11.40;4.68;;;666.40;1664.00;;;;;;5092991;28;20078;-76
2022/07/07 07:45:09;;;;;;;10.20;4.60;;;691.20;1612.80;;;;;;5093055;28;20103;-76
2022/07/07 07:47:41;;;;;;;8.23;4.82;;;691.30;1612.80;;;;;;5091531;28;20032;-77
2022/07/07 07:50:08;;;;;;;6.55;4.03;;;691.50;1612.80;;;;;;5091982;28;20436;-77
2022/07/07 07:52:34;;;;;;;7.22;3.17;;;691.60;1638.40;;;;;;5090917;28;20032;-78
2022/07/07 07:55:00;;;;;;;11.20;3.47;;;691.70;1638.40;;;;;;5092877;28;20436;-75
2022/07/07 07:57:26;;;;;;;9.23;3.90;;;691.70;1612.80;;;;;;5092524;28;20035;-78
2022/07/07 07:59:51;;;;;;;10.45;4.00;;;691.70;1612.80;;;;;;5091784;28;20028;-76
2022/07/07 08:02:17;;;;;;;11.98;3.83;;;691.70;1612.80;;;;;;5082741;28;20021;-75
2022/07/07 08:04:43;;;;;;;11.48;3.90;;;691.90;1638.40;;;;;;5088120;28;20024;-75
2022/07/07 08:07:09;;;;;;;9.15;3.30;;;691.90;1587.20;;;;;;5092998;28;20031;-77
2022/07/07 08:09:34;;;;;;;5.82;3.03;;;691.90;1612.80;;;;;;5092809;28;20059;-75
2022/07/07 08:12:00;;;;;;;9.18;3.65;;;692.00;1587.20;;;;;;5092995;28;20431;-76
2022/07/07 08:14:26;;;;;;;9.65;3.35;;;692.10;1612.80;;;;;;5093225;28;20024;-78
2022/07/07 08:16:51;;;;;;;6.78;3.45;;;692.10;1612.80;;;;;;5091227;28;20035;-76
2022/07/07 08:19:19;;;;;;;8.38;3.58;;;692.10;1612.80;;;;;;5092499;28;20023;-77
2022/07/07 08:21:48;;;;;;;8.95;3.60;;;691.90;1561.60;;;;;;5091460;28;20020;-75
2022/07/07 08:24:14;;;;;;;9.20;3.47;;;691.90;1587.20;;;;;;5092166;28;20511;-77
2022/07/07 08:26:41;;;;;;;6.03;2.83;;;692.00;1612.80;;;;;;5105323;28;20051;-76
2022/07/07 08:29:07;;;;;;;6.70;3.03;;;692.10;1587.20;;;;;;5094833;28;20118;-75
2022/07/07 08:31:32;;;;;;;3.95;2.70;;;692.10;1587.20;;;;;;5090742;28;20158;-76
2022/07/07 08:33:58;;;;;;;13.68;3.75;;;716.90;1612.80;;;;;;5092513;28;20016;-77
2022/07/07 08:36:24;;;;;;;7.28;3.47;;;716.90;1612.80;;;;;;5092474;28;20054;-77
2022/07/07 08:38:50;;;;;;;5.30;3.22;;;716.80;1561.60;;;;;;5092388;28;20031;-76
2022/07/07 08:41:16;;;;;;;8.85;3.00;;;716.90;1612.80;;;;;;5082900;28;20062;-75
2022/07/07 08:43:42;;;;;;;7.45;3.60;;;717.00;1587.20;;;;;;5086507;28;20020;-76
2022/07/07 08:46:09;;;;;;;6.15;3.20;;;717.00;1561.60;;;;;;5092233;28;20028;-76
2022/07/07 08:48:35;;;;;;;6.82;3.55;;;717.10;1587.20;;;;;;5092332;28;20032;-76
2022/07/07 08:51:04;;;;;;;8.05;3.30;;;717.00;1561.60;;;;;;5089954;28;20075;-76
2022/07/07 08:53:35;;;;;;;9.63;3.58;;;716.80;1561.60;;;;;;5090756;28;20136;-75
2022/07/07 08:56:04;;;;;;;8.40;3.22;;;717.00;1612.80;;;;;;5090180;28;20044;-75
2022/07/07 08:58:31;;;;;;;10.65;3.90;;;717.10;1587.20;;;;;;5091399;28;20051;-75
2022/07/07 09:00:57;;;;;;;51.15;9.63;;;717.20;1561.60;;;;;;5090650;28;20428;-75
2022/07/07 09:03:23;;;;;;;17.60;4.32;;;717.40;1561.60;;;;;;5078325;28;20028;-78
2022/07/07 09:05:49;;;;;;;9.35;3.10;;;717.50;1561.60;;;;;;5089409;28;20020;-75
2022/07/07 09:08:23;;;;;;;4.78;3.08;;;717.60;1510.40;;;;;;5091768;28;20043;-78
2022/07/07 09:10:49;;;;;;;12.05;3.72;;;717.50;1510.40;;;;;;5089724;28;20093;-75
2022/07/07 09:13:28;;;;;;;6.80;3.85;;;717.60;1536.00;;;;;;5091454;28;20473;-81
2022/07/07 09:15:56;;;;;;;10.73;3.80;;;717.50;1484.80;;;;;;5091378;28;20027;-75
2022/07/07 09:18:32;;;;;;;6.95;3.00;;;742.40;1536.00;;;;;;5090102;28;20139;-77
2022/07/07 09:20:58;;;;;;;;;;;742.50;1510.40;;;;;;5091917;28;20024;-75
2022/07/07 09:23:24;;;;;;;10.43;3.22;;;742.60;1510.40;;;;;;5090427;28;20281;-75
2022/07/07 09:25:49;;;;;;;4.63;3.00;;;742.60;1536.00;;;;;;5090024;28;20431;-76
2022/07/07 09:28:15;;;;;;;4.63;2.58;;;742.80;1484.80;;;;;;5085680;28;20052;-75
2022/07/07 09:30:43;;;;;;;6.78;2.78;;;742.80;1459.20;;;;;;5090078;28;20383;-74
2022/07/07 09:33:23;;;;;;;7.40;3.22;;;742.50;1484.80;;;;;;5089952;28;20035;-76
2022/07/07 09:38:36;;;;;;;11.93;3.55;;;717.60;1484.80;;;;;;5072184;28;20089;-75
2022/07/07 09:41:04;;;;;;;4.10;2.55;;;742.40;1510.40;;;;;;5085242;28;20493;-75
2022/07/07 09:43:35;;;;;;;5.07;2.40;;;742.80;1433.60;;;;;;5091749;28;20085;-76
2022/07/07 09:46:17;;;;;;;6.95;2.30;;;742.90;1356.80;;;;;;5091692;28;20423;-76
2022/07/07 09:48:49;;;;;;;5.78;2.33;;;743.30;1356.80;;;;;;5083171;28;20032;-75
2022/07/07 09:51:19;;;;;;;4.07;3.20;;;768.10;1331.20;;;;;;5070327;28;20024;-75
2022/07/07 09:53:56;;;;;;;4.20;2.90;;;768.30;1382.40;;;;;;5093293;28;20099;-75
2022/07/07 09:56:23;;;;;;;7.13;2.95;;;768.40;1356.80;;;;;;5096550;28;20057;-75
2022/07/07 09:58:50;;;;;;;5.63;3.10;;;768.50;1382.40;;;;;;5100562;28;20027;-77
2022/07/07 10:01:17;;;;;;;6.93;3.08;;;743.30;1382.40;;;;;;5091708;28;20020;-75
2022/07/07 10:03:43;;;;;;;4.22;2.42;;;768.20;1356.80;;;;;;5079872;28;20059;-76
2022/07/07 10:06:10;;;;;;;5.53;2.72;;;768.60;1254.40;;;;;;5090177;28;20137;-76
2022/07/07 10:08:42;;;;;;;4.00;2.70;;;768.90;1228.80;;;;;;5091239;28;20065;-78
2022/07/07 10:11:11;;;;;;;3.35;2.38;;;793.70;1228.80;;;;;;5091090;28;20023;-75
2022/07/07 10:13:42;;;;;;;4.00;2.42;;;793.90;1177.60;;;;;;5090102;28;20019;-75
2022/07/07 10:16:07;;;;;;;3.63;2.42;;;793.90;1152.00;;;;;;5093846;28;20389;-78
2022/07/07 10:18:35;;;;;;;4.50;2.63;;;794.00;1100.80;;;;;;5093140;28;20032;-77
2022/07/07 10:21:01;;;;;;;12.10;2.38;;;794.00;1126.40;;;;;;5093762;28;20143;-77
2022/07/07 10:23:29;;;;;;;3.35;2.05;;;794.10;1075.20;;;;;;5095201;28;20047;-77
2022/07/07 10:26:05;;;;;;;2.80;1.98;;;794.30;1049.60;;;;;;5093853;28;20024;-77
2022/07/07 10:28:56;;;;;;;3.92;2.10;;;794.50;1049.60;;;;;;5081230;28;20032;-78
2022/07/07 10:31:26;;;;;;;4.60;2.20;;;819.30;1049.60;;;;;;5094484;28;20016;-78
2022/07/07 10:34:02;;;;;;;3.47;2.45;;;819.40;1024.00;;;;;;5095041;28;20020;-75
2022/07/07 10:36:49;;;;;;;5.53;1.95;;;819.50;1049.60;;;;;;5094327;28;20028;-75
2022/07/07 10:39:22;;;;;;;6.47;2.13;;;819.60;1049.60;;;;;;5094943;28;20087;-75
2022/07/07 10:42:02;;;;;;;3.40;2.00;;;819.70;1075.20;;;;;;5094835;28;20024;-75
2022/07/07 10:44:28;;;;;;;3.97;2.10;;;819.90;1049.60;;;;;;5094210;28;20475;-75
2022/07/07 10:46:58;;;;;;;9.10;2.58;;;819.80;1049.60;;;;;;5094850;28;20043;-75
2022/07/07 10:49:40;;;;;;;7.20;2.40;;;819.70;1024.00;;;;;;5094373;28;20055;-75
2022/07/07 10:52:23;;;;;;;3.03;2.05;;;819.90;1049.60;;;;;;5094479;28;20351;-75
2022/07/07 10:55:04;;;;;;;5.78;2.25;;;844.80;1075.20;;;;;;5080711;28;20024;-76
2022/07/07 10:57:50;;;;;;;5.60;2.22;;;820.00;1049.60;;;;;;5104906;28;20099;-75
2022/07/07 11:00:25;;;;;;;;;;;844.80;1203.20;;;;;;5093822;28;20032;-77
2022/07/07 11:03:08;;;;;;;6.40;2.63;;;819.30;1228.80;;;;;;5093861;28;19904;-78
2022/07/07 11:05:35;;;;;;;7.47;2.67;;;794.10;1254.40;;;;;;5093515;28;20382;-74
2022/07/07 11:08:03;;;;;;;7.97;2.75;;;793.60;1280.00;;;;;;5093781;28;20044;-74
2022/07/07 11:10:42;;;;;;;4.60;2.65;;;768.70;1305.60;;;;;;5094122;28;20516;-75
2022/07/07 11:13:31;;;;;;;5.18;2.42;;;794.00;1280.00;;;;;;5103368;28;20382;-75
2022/07/07 11:16:13;;;;;;;4.40;2.15;;;794.50;1254.40;;;;;;5093471;28;20025;-76
2022/07/07 11:18:41;;;;;;;5.20;2.70;;;819.40;1203.20;;;;;;5090939;28;20133;-76
2022/07/07 11:21:08;;;;;;;4.72;2.08;;;819.60;1203.20;;;;;;5093680;28;20030;-76
2022/07/07 11:23:56;;;;;;;4.35;2.30;;;819.80;1203.20;;;;;;5091291;28;20393;-74
2022/07/07 11:26:24;;;;;;;6.45;2.80;;;819.80;1152.00;;;;;;5090028;28;20494;-76
2022/07/07 11:28:51;;;;;;;9.00;2.50;;;819.90;1152.00;;;;;;5093707;28;20146;-76
2022/07/07 11:31:17;;;;;;;3.70;1.90;;;820.10;1126.40;;;;;;5092147;28;20035;-79
2022/07/07 11:33:49;;;;;;;5.93;2.28;;;845.00;1152.00;;;;;;5093722;28;20095;-76
2022/07/07 11:36:21;;;;;;;3.50;2.13;;;819.90;1126.40;;;;;;5093035;28;20028;-76
2022/07/07 11:38:51;;;;;;;3.85;3.00;;;819.30;1152.00;;;;;;5092835;28;20046;-76
2022/07/07 11:41:17;;;;;;;4.43;2.10;;;794.30;1152.00;;;;;;5091685;28;20020;-81
2022/07/07 11:43:43;;;;;;;2.85;2.20;;;819.40;1152.00;;;;;;5091838;28;20019;-78
2022/07/07 11:46:09;;;;;;;4.25;2.58;;;819.60;1126.40;;;;;;5093549;28;20539;-75
2022/07/07 11:48:38;;;;;;;3.00;2.05;;;819.90;1100.80;;;;;;5092968;28;20036;-74
2022/07/07 11:51:04;;;;;;;5.28;2.50;;;820.00;1049.60;;;;;;5091269;28;20594;-75
2022/07/07 11:53:30;;;;;;;4.72;2.35;;;844.80;1100.80;;;;;;5093081;28;20477;-75
2022/07/07 11:55:56;;;;;;;5.85;2.40;;;844.90;1075.20;;;;;;5092848;28;20055;-75
2022/07/07 11:58:22;;;;;;;4.72;1.90;;;844.90;1049.60;;;;;;5092798;28;20113;-75
2022/07/07 12:00:52;;;;;;;5.07;2.20;;;845.00;1075.20;;;;;;5093104;28;20019;-75
2022/07/07 12:03:18;;;;;;;2.80;1.85;;;845.10;1049.60;;;;;;5092633;28;20077;-76
2022/07/07 12:05:46;;;;;;;3.58;2.10;;;845.20;1049.60;;;;;;5092754;28;20074;-74
2022/07/07 12:08:14;;;;;;;6.97;2.00;;;845.20;1049.60;;;;;;5091264;28;20051;-77
2022/07/07 12:10:50;;;;;;;3.75;2.03;;;845.30;1049.60;;;;;;5091396;28;20462;-75
2022/07/07 12:13:16;;;;;;;4.63;2.08;;;819.70;1049.60;;;;;;5092840;28;20028;-75
2022/07/07 12:15:49;;;;;;;4.80;1.80;;;819.30;1075.20;;;;;;5090009;28;20020;-77
2022/07/07 12:18:42;;;;;;;4.68;2.00;;;794.30;1100.80;;;;;;5092600;28;20016;-77
2022/07/07 12:21:12;;;;;;;5.10;2.45;;;793.90;1126.40;;;;;;5088342;28;20083;-74